Time;durP1;ratioP1;P1;durP2;ratioP2;P2;SDS_P1;SDS_P2;PMS_P1;PMS_P2;Temp;Humidity;BMP_temperature;BMP_pressure;BME280_temperature;BME280_humidity;BME280_pressure;Samples;Min_cycle;Max_cycle;Signal;HPM_P1;HPM_P2
2023/12/18 00:00:33;;;;;;;22.77;14.05;;;1.90;99.90;;;;;;478521;248;27567;-70
2023/12/18 00:02:35;;;;;;;19.75;13.43;;;1.90;99.90;;;;;;478490;248;27494;-69
2023/12/18 00:04:36;;;;;;;19.52;12.70;;;1.80;99.90;;;;;;478518;248;29121;-69
2023/12/18 00:06:37;;;;;;;21.85;14.40;;;1.80;99.90;;;;;;478526;248;27648;-69
2023/12/18 00:08:38;;;;;;;21.73;14.25;;;1.80;99.90;;;;;;478504;243;27499;-69
2023/12/18 00:10:40;;;;;;;22.37;14.38;;;1.80;99.90;;;;;;478482;248;27543;-70
2023/12/18 00:12:41;;;;;;;31.80;14.85;;;1.80;99.90;;;;;;478458;248;27557;-69
2023/12/18 00:14:42;;;;;;;23.90;14.07;;;1.80;99.90;;;;;;478497;243;27547;-69
2023/12/18 00:16:43;;;;;;;24.55;14.25;;;1.80;99.90;;;;;;478541;248;27540;-71
2023/12/18 00:18:45;;;;;;;20.55;14.68;;;1.80;99.90;;;;;;478507;248;28046;-69
2023/12/18 00:20:46;;;;;;;23.65;14.55;;;1.80;99.90;;;;;;478379;248;28142;-70
2023/12/18 00:22:47;;;;;;;23.38;13.38;;;1.70;99.90;;;;;;478461;248;27494;-69
2023/12/18 00:24:48;;;;;;;19.10;13.15;;;1.70;99.90;;;;;;478547;248;27522;-69
2023/12/18 00:26:50;;;;;;;23.73;14.50;;;1.70;99.90;;;;;;478510;248;27534;-70
2023/12/18 00:28:51;;;;;;;18.80;13.50;;;1.60;99.90;;;;;;478380;248;27644;-69
2023/12/18 00:30:52;;;;;;;23.10;14.20;;;1.60;99.90;;;;;;478485;243;27554;-69
2023/12/18 00:32:54;;;;;;;23.05;14.45;;;1.70;99.90;;;;;;478464;248;28130;-71
2023/12/18 00:34:55;;;;;;;20.75;13.95;;;1.80;99.90;;;;;;478535;248;28458;-70
2023/12/18 00:36:56;;;;;;;20.80;14.10;;;1.80;99.90;;;;;;478486;248;28148;-70
2023/12/18 00:38:57;;;;;;;22.75;13.38;;;1.70;99.90;;;;;;478489;248;27516;-69
2023/12/18 00:40:59;;;;;;;20.15;12.60;;;1.80;99.90;;;;;;478452;248;27588;-69
2023/12/18 00:43:00;;;;;;;21.10;12.30;;;1.90;99.90;;;;;;478483;248;27584;-71
2023/12/18 00:45:01;;;;;;;26.50;13.88;;;1.80;99.90;;;;;;478522;248;27558;-69
2023/12/18 00:47:02;;;;;;;22.42;13.68;;;1.80;99.90;;;;;;478479;248;28163;-69
2023/12/18 00:49:04;;;;;;;26.25;14.27;;;1.90;99.90;;;;;;478517;248;27973;-69
2023/12/18 00:51:05;;;;;;;19.75;12.55;;;1.90;99.90;;;;;;478510;248;28000;-70
2023/12/18 00:53:06;;;;;;;19.12;13.20;;;1.90;99.90;;;;;;478479;248;27647;-70
2023/12/18 00:55:07;;;;;;;26.80;15.15;;;1.90;99.90;;;;;;478515;248;27496;-70
2023/12/18 00:57:09;;;;;;;26.62;13.95;;;1.90;99.90;;;;;;478490;243;27669;-69
2023/12/18 00:59:10;;;;;;;31.25;13.77;;;2.00;99.90;;;;;;478523;243;27545;-71
2023/12/18 01:01:11;;;;;;;25.25;13.88;;;2.00;99.90;;;;;;478555;248;27554;-69
2023/12/18 01:03:12;;;;;;;28.73;15.63;;;1.90;99.90;;;;;;478495;248;28100;-70
2023/12/18 01:05:17;;;;;;;25.20;13.57;;;1.90;99.90;;;;;;478504;244;29042;-69
2023/12/18 01:07:18;;;;;;;20.88;12.40;;;1.90;99.90;;;;;;478513;248;27542;-70
2023/12/18 01:09:19;;;;;;;22.67;12.93;;;1.90;99.90;;;;;;478466;248;27976;-69
2023/12/18 01:11:21;;;;;;;18.05;11.18;;;1.90;99.90;;;;;;478500;248;28072;-70
2023/12/18 01:13:22;;;;;;;20.05;11.88;;;1.90;99.90;;;;;;478477;248;27506;-69
2023/12/18 01:15:23;;;;;;;18.52;11.75;;;1.90;99.90;;;;;;478497;248;27629;-70
2023/12/18 01:17:24;;;;;;;20.40;12.10;;;1.90;99.90;;;;;;478523;248;27549;-71
2023/12/18 01:19:26;;;;;;;22.42;12.77;;;1.90;99.90;;;;;;478490;248;27511;-70
2023/12/18 01:21:27;;;;;;;25.15;13.00;;;1.90;99.90;;;;;;478495;248;27566;-70
2023/12/18 01:23:28;;;;;;;20.98;12.50;;;1.90;99.90;;;;;;478455;248;27487;-69
2023/12/18 01:25:29;;;;;;;17.67;11.38;;;1.90;99.90;;;;;;478508;248;28118;-70
2023/12/18 01:27:31;;;;;;;19.85;11.45;;;1.80;99.90;;;;;;478495;243;28054;-70
2023/12/18 01:29:32;;;;;;;19.37;12.70;;;1.90;99.90;;;;;;478503;248;27508;-70
2023/12/18 01:31:33;;;;;;;26.87;12.60;;;1.90;99.90;;;;;;478508;248;27533;-70
2023/12/18 01:33:34;;;;;;;17.85;11.85;;;1.80;99.90;;;;;;478490;243;27535;-69
2023/12/18 01:35:36;;;;;;;22.67;12.50;;;1.80;99.90;;;;;;478558;248;27507;-69
2023/12/18 01:37:37;;;;;;;20.50;12.45;;;1.80;99.90;;;;;;478556;248;27590;-70
2023/12/18 01:39:38;;;;;;;20.42;11.98;;;1.80;99.90;;;;;;478537;248;27520;-69
2023/12/18 01:41:39;;;;;;;23.20;12.52;;;1.90;99.90;;;;;;478490;248;28016;-70
2023/12/18 01:43:41;;;;;;;23.75;14.15;;;1.90;99.90;;;;;;478533;243;28081;-70
2023/12/18 01:45:42;;;;;;;24.48;15.10;;;1.90;99.90;;;;;;478519;248;27593;-70
2023/12/18 01:47:43;;;;;;;27.25;13.40;;;2.00;99.90;;;;;;478525;248;27543;-70
2023/12/18 01:49:44;;;;;;;26.70;14.10;;;2.00;99.90;;;;;;478527;248;27609;-69
2023/12/18 01:51:46;;;;;;;31.95;18.95;;;2.10;99.90;;;;;;478526;248;27554;-69
2023/12/18 01:53:47;;;;;;;30.10;17.62;;;2.10;99.90;;;;;;478506;248;27621;-70
2023/12/18 01:55:48;;;;;;;24.37;16.25;;;2.10;99.90;;;;;;478530;248;27977;-69
2023/12/18 01:57:49;;;;;;;27.00;16.90;;;2.20;99.90;;;;;;478521;248;28023;-70
2023/12/18 01:59:51;;;;;;;22.70;15.15;;;2.20;99.90;;;;;;478460;248;28476;-69
2023/12/18 02:01:52;;;;;;;28.83;17.58;;;2.20;99.90;;;;;;478529;248;27507;-70
2023/12/18 02:03:53;;;;;;;24.70;14.80;;;2.30;99.90;;;;;;478514;243;27569;-70
2023/12/18 02:05:54;;;;;;;20.88;13.62;;;2.30;99.90;;;;;;478520;248;27490;-70
2023/12/18 02:07:56;;;;;;;18.70;13.75;;;2.30;99.90;;;;;;478388;248;27614;-69
2023/12/18 02:09:57;;;;;;;18.80;12.55;;;2.30;99.90;;;;;;478525;248;27569;-70
2023/12/18 02:11:58;;;;;;;20.65;13.25;;;2.30;99.90;;;;;;478517;248;27512;-69
2023/12/18 02:14:00;;;;;;;18.67;12.13;;;2.20;99.90;;;;;;478469;248;27552;-69
2023/12/18 02:16:01;;;;;;;24.12;14.60;;;2.20;99.90;;;;;;478470;243;27562;-69
2023/12/18 02:18:02;;;;;;;24.48;16.50;;;2.20;99.90;;;;;;478545;248;28002;-69
2023/12/18 02:20:03;;;;;;;19.92;13.30;;;2.30;99.90;;;;;;478510;248;28058;-70
2023/12/18 02:22:05;;;;;;;23.27;15.80;;;2.40;99.90;;;;;;478494;248;27504;-69
2023/12/18 02:24:06;;;;;;;18.65;12.90;;;2.40;99.90;;;;;;478483;248;27537;-70
2023/12/18 02:26:07;;;;;;;21.98;14.95;;;2.40;99.90;;;;;;478534;248;27610;-69
2023/12/18 02:28:08;;;;;;;19.25;13.48;;;2.30;99.90;;;;;;478517;248;27510;-70
2023/12/18 02:30:10;;;;;;;18.15;13.30;;;2.30;99.90;;;;;;478539;248;27658;-70
2023/12/18 02:32:11;;;;;;;16.92;11.85;;;2.30;99.90;;;;;;478502;248;27700;-69
2023/12/18 02:34:12;;;;;;;20.27;14.68;;;2.20;99.90;;;;;;478477;248;27970;-69
2023/12/18 02:36:13;;;;;;;18.77;12.57;;;2.20;99.90;;;;;;478556;248;28189;-70
2023/12/18 02:38:15;;;;;;;17.60;12.70;;;2.20;99.90;;;;;;478543;248;27509;-69
2023/12/18 02:40:16;;;;;;;17.87;11.20;;;2.30;99.90;;;;;;478476;248;27555;-70
2023/12/18 02:42:17;;;;;;;21.35;13.00;;;2.30;99.90;;;;;;478496;248;27506;-70
2023/12/18 02:44:19;;;;;;;22.35;12.05;;;2.30;99.90;;;;;;478495;248;27503;-69
2023/12/18 02:46:20;;;;;;;23.23;14.80;;;2.30;99.90;;;;;;478530;248;27582;-70
2023/12/18 02:48:21;;;;;;;19.95;12.95;;;2.40;99.90;;;;;;478523;248;27561;-69
2023/12/18 02:50:22;;;;;;;19.23;13.85;;;2.40;99.90;;;;;;478493;243;28031;-69
2023/12/18 02:52:23;;;;;;;18.10;11.88;;;2.40;99.90;;;;;;478497;248;28133;-70
2023/12/18 02:54:25;;;;;;;17.00;11.95;;;2.40;99.90;;;;;;478490;248;27597;-69
2023/12/18 02:56:26;;;;;;;16.50;11.68;;;2.40;99.90;;;;;;478536;248;27543;-70
2023/12/18 02:58:27;;;;;;;18.77;12.75;;;2.40;99.90;;;;;;478494;248;27506;-69
2023/12/18 03:00:28;;;;;;;18.92;12.57;;;2.40;99.90;;;;;;478456;248;27535;-69
2023/12/18 03:02:30;;;;;;;21.48;13.43;;;2.40;99.90;;;;;;478562;248;27556;-71
2023/12/18 03:04:31;;;;;;;26.25;15.75;;;2.40;99.90;;;;;;478522;248;28054;-69
2023/12/18 03:06:32;;;;;;;20.50;13.85;;;2.30;99.90;;;;;;478538;248;28066;-70
2023/12/18 03:08:34;;;;;;;18.98;11.93;;;2.40;99.90;;;;;;478490;248;27945;-69
2023/12/18 03:10:35;;;;;;;21.35;13.70;;;2.30;99.90;;;;;;478546;248;27619;-70
2023/12/18 03:12:36;;;;;;;23.92;15.00;;;2.40;99.90;;;;;;478484;248;27538;-70
2023/12/18 03:14:37;;;;;;;22.10;13.80;;;2.40;99.90;;;;;;478510;248;27492;-69
2023/12/18 03:16:39;;;;;;;18.42;13.07;;;2.40;99.90;;;;;;478518;248;27556;-70
2023/12/18 03:18:40;;;;;;;17.45;12.10;;;2.40;99.90;;;;;;478530;248;27513;-69
2023/12/18 03:20:41;;;;;;;19.30;12.93;;;2.30;99.90;;;;;;478535;248;28036;-69
2023/12/18 03:22:43;;;;;;;16.17;12.10;;;2.30;99.90;;;;;;478490;248;28163;-69
2023/12/18 03:24:44;;;;;;;15.73;11.75;;;2.40;99.90;;;;;;478433;248;27496;-70
2023/12/18 03:26:45;;;;;;;18.27;12.13;;;2.40;99.90;;;;;;478491;248;27617;-69
2023/12/18 03:28:46;;;;;;;20.80;13.20;;;2.50;99.90;;;;;;478532;248;27604;-70
2023/12/18 03:30:47;;;;;;;16.40;12.27;;;2.50;99.90;;;;;;478509;243;27515;-70
2023/12/18 03:32:49;;;;;;;19.95;12.20;;;2.50;99.90;;;;;;478487;248;27537;-69
2023/12/18 03:34:50;;;;;;;15.20;11.00;;;2.50;99.90;;;;;;478515;248;27502;-69
2023/12/18 03:36:51;;;;;;;14.50;10.93;;;2.50;99.90;;;;;;478507;248;27988;-70
2023/12/18 03:38:52;;;;;;;17.70;12.77;;;2.50;99.90;;;;;;478530;248;29119;-71
2023/12/18 03:40:54;;;;;;;15.30;10.57;;;2.60;99.90;;;;;;478496;248;27503;-69
2023/12/18 03:42:55;;;;;;;13.70;10.65;;;2.50;99.90;;;;;;478481;248;27622;-70
2023/12/18 03:44:56;;;;;;;14.50;10.18;;;2.60;99.90;;;;;;478533;248;27514;-69
2023/12/18 03:46:57;;;;;;;13.32;10.55;;;2.60;99.90;;;;;;478524;248;27603;-70
2023/12/18 03:48:59;;;;;;;15.80;10.20;;;2.60;99.90;;;;;;478513;248;27602;-70
2023/12/18 03:51:00;;;;;;;13.93;10.30;;;2.50;99.90;;;;;;478509;248;27540;-69
2023/12/18 03:53:01;;;;;;;13.65;10.23;;;2.50;99.90;;;;;;478441;248;28092;-69
2023/12/18 03:55:02;;;;;;;13.85;9.23;;;2.50;99.90;;;;;;478535;248;28037;-71
2023/12/18 03:57:04;;;;;;;13.25;10.40;;;2.50;99.90;;;;;;478525;248;27502;-70
2023/12/18 03:59:05;;;;;;;11.10;9.40;;;2.50;99.90;;;;;;478523;248;27539;-69
2023/12/18 04:01:07;;;;;;;12.10;9.30;;;2.40;99.90;;;;;;478479;248;27522;-69
2023/12/18 04:03:07;;;;;;;12.37;9.20;;;2.30;99.90;;;;;;478480;248;27534;-70
2023/12/18 04:05:09;;;;;;;12.40;9.23;;;2.30;99.90;;;;;;478491;248;27549;-70
2023/12/18 04:07:10;;;;;;;12.68;9.80;;;2.40;99.90;;;;;;478468;248;28001;-70
2023/12/18 04:09:11;;;;;;;15.30;8.68;;;2.40;99.90;;;;;;478468;243;27651;-70
2023/12/18 04:11:12;;;;;;;12.45;8.75;;;2.40;99.90;;;;;;478474;248;28262;-70
2023/12/18 04:13:14;;;;;;;11.57;8.85;;;2.40;99.90;;;;;;478464;248;28025;-70
2023/12/18 04:15:15;;;;;;;13.15;9.90;;;2.40;99.90;;;;;;478488;248;28053;-69
2023/12/18 04:17:16;;;;;;;12.73;9.55;;;2.40;99.90;;;;;;478468;248;27582;-69
2023/12/18 04:19:17;;;;;;;17.50;9.48;;;2.40;99.90;;;;;;478437;248;27640;-69
2023/12/18 04:21:19;;;;;;;15.38;10.30;;;2.40;99.90;;;;;;478508;248;27546;-69
2023/12/18 04:23:20;;;;;;;11.40;9.20;;;2.30;99.90;;;;;;478482;248;27586;-69
2023/12/18 04:25:22;;;;;;;11.95;8.00;;;2.30;99.90;;;;;;478466;248;27548;-70
2023/12/18 04:27:22;;;;;;;12.23;9.23;;;2.30;99.90;;;;;;478509;248;27645;-70
2023/12/18 04:29:24;;;;;;;14.00;9.45;;;2.20;99.90;;;;;;478526;248;27545;-69
2023/12/18 04:31:25;;;;;;;10.82;8.35;;;2.20;99.90;;;;;;478535;243;28025;-70
2023/12/18 04:33:26;;;;;;;10.75;8.88;;;2.20;99.90;;;;;;478474;248;27983;-69
2023/12/18 04:35:27;;;;;;;11.30;8.13;;;2.20;99.90;;;;;;478528;248;28100;-69
2023/12/18 04:37:29;;;;;;;13.98;9.82;;;2.30;99.90;;;;;;478527;248;27495;-69
2023/12/18 04:39:30;;;;;;;12.25;8.48;;;2.20;99.90;;;;;;478563;248;27513;-69
2023/12/18 04:41:31;;;;;;;9.98;8.13;;;2.20;99.90;;;;;;478461;248;27539;-70
2023/12/18 04:43:33;;;;;;;11.00;7.85;;;2.10;99.90;;;;;;478488;248;27570;-69
2023/12/18 04:45:34;;;;;;;10.15;8.70;;;2.10;99.90;;;;;;478490;248;27662;-70
2023/12/18 04:47:35;;;;;;;11.43;8.10;;;2.10;99.90;;;;;;478500;248;27522;-71
2023/12/18 04:49:36;;;;;;;10.57;8.45;;;2.10;99.90;;;;;;478534;248;27519;-69
2023/12/18 04:51:38;;;;;;;10.45;8.25;;;2.20;99.90;;;;;;478512;248;28178;-70
2023/12/18 04:53:39;;;;;;;11.65;8.82;;;2.10;99.90;;;;;;478508;248;27962;-69
2023/12/18 04:55:40;;;;;;;14.07;9.57;;;2.10;99.90;;;;;;478529;248;29201;-70
2023/12/18 04:57:41;;;;;;;9.57;7.72;;;2.20;99.90;;;;;;478567;248;27676;-71
2023/12/18 04:59:43;;;;;;;8.75;7.50;;;2.20;99.90;;;;;;478565;248;27514;-70
2023/12/18 05:01:44;;;;;;;9.60;8.40;;;2.10;99.90;;;;;;478532;248;27586;-69
2023/12/18 05:03:45;;;;;;;13.55;9.63;;;2.10;99.90;;;;;;478489;248;27589;-70
2023/12/18 05:05:46;;;;;;;14.65;9.77;;;2.10;99.90;;;;;;478515;248;27530;-71
2023/12/18 05:07:48;;;;;;;10.75;7.57;;;2.10;99.90;;;;;;478577;248;27541;-71
2023/12/18 05:09:49;;;;;;;12.18;9.35;;;2.10;99.90;;;;;;478513;248;27581;-69
2023/12/18 05:11:50;;;;;;;10.48;8.07;;;2.10;99.90;;;;;;478503;248;27634;-69
2023/12/18 05:13:51;;;;;;;11.30;8.02;;;2.10;99.90;;;;;;478475;248;27563;-70
2023/12/18 05:15:53;;;;;;;10.57;8.73;;;2.10;99.90;;;;;;478540;248;27519;-69
2023/12/18 05:17:54;;;;;;;11.85;8.60;;;2.00;99.90;;;;;;478396;248;27546;-69
2023/12/18 05:19:55;;;;;;;9.98;8.65;;;2.00;99.90;;;;;;478499;248;27575;-70
2023/12/18 05:21:56;;;;;;;15.30;10.40;;;1.90;99.90;;;;;;478448;248;28017;-70
2023/12/18 05:23:58;;;;;;;12.93;9.57;;;1.90;99.90;;;;;;478502;248;28105;-71
2023/12/18 05:25:59;;;;;;;11.70;8.20;;;1.90;99.90;;;;;;478541;248;27505;-69
2023/12/18 05:28:00;;;;;;;11.93;7.82;;;1.90;99.90;;;;;;478490;248;27555;-69
2023/12/18 05:30:01;;;;;;;12.80;7.87;;;1.90;99.90;;;;;;478519;248;27550;-69
2023/12/18 05:32:03;;;;;;;10.43;7.90;;;1.90;99.90;;;;;;478431;248;27536;-70
2023/12/18 05:34:04;;;;;;;10.32;7.80;;;1.80;99.90;;;;;;478491;248;27550;-71
2023/12/18 05:36:05;;;;;;;12.07;7.85;;;1.80;99.90;;;;;;478516;248;27512;-69
2023/12/18 05:38:07;;;;;;;11.18;7.28;;;1.80;99.90;;;;;;478489;248;27545;-69
2023/12/18 05:40:08;;;;;;;11.00;7.50;;;1.80;99.90;;;;;;478446;248;27524;-70
2023/12/18 05:42:09;;;;;;;9.88;7.37;;;1.80;99.90;;;;;;478467;248;27957;-69
2023/12/18 05:44:10;;;;;;;10.93;7.78;;;1.80;99.90;;;;;;478468;248;28138;-70
2023/12/18 05:46:12;;;;;;;9.13;7.12;;;1.80;99.90;;;;;;478491;248;27552;-70
2023/12/18 05:48:13;;;;;;;13.15;7.53;;;1.80;99.90;;;;;;478544;248;27487;-69
2023/12/18 05:50:14;;;;;;;8.95;6.57;;;1.80;99.90;;;;;;478497;248;27563;-70
2023/12/18 05:52:15;;;;;;;8.90;7.15;;;1.80;99.90;;;;;;478537;248;27481;-69
2023/12/18 05:54:17;;;;;;;8.95;7.40;;;1.80;99.90;;;;;;478487;248;27972;-69
2023/12/18 05:56:18;;;;;;;7.82;6.95;;;1.80;99.90;;;;;;478538;248;28072;-71
2023/12/18 05:58:19;;;;;;;8.60;7.10;;;1.70;99.90;;;;;;478526;248;28109;-69
2023/12/18 06:00:20;;;;;;;9.40;7.50;;;1.70;99.90;;;;;;478499;248;28006;-69
2023/12/18 06:02:22;;;;;;;10.57;7.40;;;1.70;99.90;;;;;;478504;248;27566;-70
2023/12/18 06:04:23;;;;;;;10.13;8.35;;;1.70;99.90;;;;;;478450;248;27549;-69
2023/12/18 06:06:24;;;;;;;8.85;7.35;;;1.60;99.90;;;;;;478520;248;27559;-70
2023/12/18 06:08:25;;;;;;;9.70;7.75;;;1.60;99.90;;;;;;478527;248;27580;-70
2023/12/18 06:10:27;;;;;;;10.77;7.55;;;1.60;99.90;;;;;;478443;248;27582;-70
2023/12/18 06:12:28;;;;;;;11.25;8.45;;;1.60;99.90;;;;;;478464;248;27529;-69
2023/12/18 06:14:29;;;;;;;13.68;9.23;;;1.60;99.90;;;;;;478498;248;27543;-70
2023/12/18 06:16:30;;;;;;;9.85;7.55;;;1.50;99.90;;;;;;478526;248;27585;-70
2023/12/18 06:18:32;;;;;;;11.85;8.02;;;1.50;99.90;;;;;;478506;248;28012;-69
2023/12/18 06:20:33;;;;;;;12.52;9.77;;;1.40;99.90;;;;;;478500;248;28041;-69
2023/12/18 06:22:34;;;;;;;11.85;9.45;;;1.40;99.90;;;;;;478453;248;28105;-71
2023/12/18 06:24:35;;;;;;;12.00;9.45;;;1.40;99.90;;;;;;478550;248;27579;-69
2023/12/18 06:26:37;;;;;;;14.35;9.43;;;1.40;99.90;;;;;;478533;248;27608;-70
2023/12/18 06:28:38;;;;;;;12.02;9.50;;;1.40;99.90;;;;;;478502;248;27495;-69
2023/12/18 06:30:39;;;;;;;14.73;10.15;;;1.40;99.90;;;;;;478486;248;27541;-69
2023/12/18 06:32:41;;;;;;;9.70;8.48;;;1.30;99.90;;;;;;478504;248;27896;-71
2023/12/18 06:34:42;;;;;;;9.73;8.15;;;1.30;99.90;;;;;;478486;248;27584;-69
2023/12/18 06:36:43;;;;;;;10.82;8.18;;;1.40;99.90;;;;;;478496;248;27669;-70
2023/12/18 06:38:44;;;;;;;10.35;8.75;;;1.40;99.90;;;;;;478493;248;27500;-69
2023/12/18 06:40:45;;;;;;;11.15;9.00;;;1.40;99.90;;;;;;478482;248;27951;-69
2023/12/18 06:42:47;;;;;;;10.90;8.52;;;1.40;99.90;;;;;;478458;248;29110;-70
2023/12/18 06:44:48;;;;;;;11.95;8.48;;;1.40;99.90;;;;;;478517;248;27521;-69
2023/12/18 06:46:49;;;;;;;11.90;8.32;;;1.30;99.90;;;;;;478495;248;27528;-70
2023/12/18 06:48:51;;;;;;;12.30;8.65;;;1.40;99.90;;;;;;478481;248;27544;-70
2023/12/18 06:50:52;;;;;;;10.30;7.87;;;1.40;99.90;;;;;;478500;248;27555;-69
2023/12/18 06:52:53;;;;;;;11.95;8.57;;;1.40;99.90;;;;;;478475;248;27541;-70
2023/12/18 06:54:54;;;;;;;10.98;8.77;;;1.40;99.90;;;;;;478499;248;27598;-70
2023/12/18 06:56:56;;;;;;;11.82;9.50;;;1.40;99.90;;;;;;478502;248;27538;-69
2023/12/18 06:58:57;;;;;;;9.95;8.27;;;1.40;99.90;;;;;;478555;248;27600;-69
2023/12/18 07:00:58;;;;;;;9.15;7.75;;;1.40;99.90;;;;;;478517;248;27940;-69
2023/12/18 07:02:59;;;;;;;11.40;8.60;;;1.40;99.90;;;;;;478470;248;28005;-69
2023/12/18 07:05:01;;;;;;;11.18;9.23;;;1.30;99.90;;;;;;478509;248;27522;-69
2023/12/18 07:07:02;;;;;;;11.65;8.98;;;1.30;99.90;;;;;;478494;248;27546;-70
2023/12/18 07:09:04;;;;;;;10.32;8.23;;;1.30;99.90;;;;;;478522;248;27639;-69
2023/12/18 07:11:04;;;;;;;10.70;8.18;;;1.30;99.90;;;;;;478482;248;27483;-70
2023/12/18 07:13:06;;;;;;;11.50;8.30;;;1.30;99.90;;;;;;478470;248;27549;-69
2023/12/18 07:15:07;;;;;;;10.20;8.30;;;1.30;99.90;;;;;;478553;248;28094;-70
2023/12/18 07:17:08;;;;;;;11.45;8.50;;;1.30;99.90;;;;;;478529;247;28011;-69
2023/12/18 07:19:09;;;;;;;10.95;8.80;;;1.20;99.90;;;;;;478491;248;27562;-70
2023/12/18 07:21:11;;;;;;;11.90;8.85;;;1.30;99.90;;;;;;478524;248;27506;-70
2023/12/18 07:23:12;;;;;;;10.75;8.48;;;1.30;99.90;;;;;;478475;248;27559;-69
2023/12/18 07:25:13;;;;;;;9.88;7.75;;;1.30;99.90;;;;;;478565;248;27549;-71
2023/12/18 07:27:14;;;;;;;9.85;7.50;;;1.30;99.90;;;;;;478527;248;27629;-69
2023/12/18 07:29:16;;;;;;;9.88;8.05;;;1.40;99.90;;;;;;478532;248;27650;-69
2023/12/18 07:31:18;;;;;;;11.20;7.93;;;1.40;99.90;;;;;;478516;248;27506;-69
2023/12/18 07:33:18;;;;;;;12.80;9.40;;;1.40;99.90;;;;;;478464;248;27527;-70
2023/12/18 07:35:19;;;;;;;12.30;8.35;;;1.40;99.90;;;;;;478542;248;27533;-70
2023/12/18 07:37:21;;;;;;;23.98;14.05;;;1.40;99.90;;;;;;478527;248;27952;-69
2023/12/18 07:39:22;;;;;;;29.17;16.02;;;1.40;99.90;;;;;;478513;248;28108;-70
2023/12/18 07:41:24;;;;;;;26.20;15.98;;;1.40;99.90;;;;;;478528;248;27538;-69
2023/12/18 07:43:25;;;;;;;27.27;16.25;;;1.40;99.90;;;;;;478445;248;27518;-69
2023/12/18 07:45:26;;;;;;;27.48;16.00;;;1.30;99.90;;;;;;478548;248;27521;-69
2023/12/18 07:47:27;;;;;;;18.98;12.68;;;1.30;99.90;;;;;;478382;248;27538;-69
2023/12/18 07:49:28;;;;;;;15.27;10.18;;;1.40;99.90;;;;;;478520;248;27629;-69
2023/12/18 07:51:30;;;;;;;11.60;8.93;;;1.50;99.90;;;;;;478527;248;27535;-71
2023/12/18 07:53:31;;;;;;;11.35;8.60;;;1.60;99.90;;;;;;478539;248;27978;-70
2023/12/18 07:55:32;;;;;;;12.07;8.68;;;1.60;99.90;;;;;;478515;248;29136;-70
2023/12/18 07:57:33;;;;;;;11.25;7.60;;;1.60;99.90;;;;;;478524;248;27572;-69
2023/12/18 07:59:39;;;;;;;10.85;9.00;;;1.70;99.90;;;;;;478320;248;27625;-69
2023/12/18 08:01:39;;;;;;;10.50;8.45;;;1.70;99.90;;;;;;478403;248;27951;-69
2023/12/18 08:03:40;;;;;;;10.27;8.57;;;1.70;99.90;;;;;;478507;248;27624;-71
2023/12/18 08:05:41;;;;;;;9.88;7.50;;;1.70;99.90;;;;;;478498;248;27488;-69
2023/12/18 08:07:43;;;;;;;10.48;7.45;;;1.70;99.90;;;;;;478523;248;27565;-69
2023/12/18 08:09:44;;;;;;;9.55;7.05;;;1.70;99.90;;;;;;478520;248;27555;-69
2023/12/18 08:11:45;;;;;;;9.60;7.32;;;1.70;99.90;;;;;;478551;248;27498;-69
2023/12/18 08:13:48;;;;;;;10.18;7.47;;;1.70;99.90;;;;;;478515;248;27588;-70
2023/12/18 08:15:48;;;;;;;10.70;7.45;;;1.70;99.90;;;;;;478445;248;27508;-69
2023/12/18 08:17:49;;;;;;;12.65;7.72;;;1.80;99.90;;;;;;478511;248;27537;-69
2023/12/18 08:19:50;;;;;;;9.68;8.20;;;1.80;99.90;;;;;;478538;248;28047;-70
2023/12/18 08:21:51;;;;;;;9.55;7.60;;;1.80;99.90;;;;;;478563;248;27971;-69
2023/12/18 08:23:53;;;;;;;8.98;7.50;;;1.90;99.90;;;;;;478494;248;28145;-69
2023/12/18 08:25:54;;;;;;;8.38;6.95;;;1.90;99.90;;;;;;478530;248;28040;-70
2023/12/18 08:27:55;;;;;;;10.40;8.25;;;1.90;99.90;;;;;;478531;248;27517;-69
2023/12/18 08:29:56;;;;;;;14.98;10.73;;;1.90;99.90;;;;;;478559;248;27539;-70
2023/12/18 08:31:58;;;;;;;26.85;14.95;;;2.00;99.90;;;;;;478539;248;27573;-70
2023/12/18 08:33:59;;;;;;;18.98;11.35;;;2.00;99.90;;;;;;478463;248;27561;-69
2023/12/18 08:36:00;;;;;;;13.23;9.20;;;2.00;99.90;;;;;;478544;248;27670;-69
2023/12/18 08:38:01;;;;;;;10.73;8.10;;;2.00;99.90;;;;;;478533;248;27583;-70
2023/12/18 08:40:03;;;;;;;12.55;8.35;;;2.00;99.90;;;;;;478528;248;27984;-69
2023/12/18 08:42:04;;;;;;;12.23;8.57;;;2.00;99.90;;;;;;478503;248;27956;-69
2023/12/18 08:44:05;;;;;;;10.90;8.00;;;2.10;99.90;;;;;;478307;248;28129;-70
2023/12/18 08:46:06;;;;;;;11.77;8.70;;;2.10;99.90;;;;;;478530;248;27550;-71
2023/12/18 08:48:08;;;;;;;11.38;7.90;;;2.10;99.90;;;;;;478512;248;27630;-69
2023/12/18 08:50:09;;;;;;;12.60;9.18;;;2.10;99.90;;;;;;478467;243;27614;-71
2023/12/18 08:52:10;;;;;;;14.18;9.13;;;2.10;99.90;;;;;;478400;248;27487;-69
2023/12/18 08:54:11;;;;;;;11.57;8.52;;;2.20;99.90;;;;;;478473;248;27539;-69
2023/12/18 08:56:13;;;;;;;11.82;7.10;;;2.20;99.90;;;;;;478533;248;27618;-70
2023/12/18 08:58:14;;;;;;;12.10;7.82;;;2.20;99.90;;;;;;478506;248;27519;-69
2023/12/18 09:00:15;;;;;;;10.25;8.00;;;2.10;99.90;;;;;;478503;248;28009;-69
2023/12/18 09:02:16;;;;;;;8.65;6.72;;;2.10;99.90;;;;;;478494;248;28072;-69
2023/12/18 09:04:18;;;;;;;9.88;7.25;;;2.10;99.90;;;;;;478488;248;27960;-70
2023/12/18 09:06:19;;;;;;;11.93;8.23;;;2.10;99.90;;;;;;478521;248;27550;-70
2023/12/18 09:08:20;;;;;;;11.12;8.20;;;2.20;99.90;;;;;;478506;243;27500;-69
2023/12/18 09:10:24;;;;;;;12.48;9.25;;;2.20;99.90;;;;;;478494;248;27533;-69
2023/12/18 09:12:25;;;;;;;12.93;9.40;;;2.20;99.90;;;;;;478482;248;27561;-69
2023/12/18 09:14:27;;;;;;;11.00;8.77;;;2.20;99.90;;;;;;478473;248;27658;-69
2023/12/18 09:16:28;;;;;;;12.20;9.13;;;2.20;99.90;;;;;;478504;248;27528;-69
2023/12/18 09:18:29;;;;;;;13.13;9.32;;;2.30;99.90;;;;;;478482;248;27673;-70
2023/12/18 09:20:30;;;;;;;12.10;8.70;;;2.30;99.90;;;;;;478501;248;27500;-70
2023/12/18 09:22:32;;;;;;;14.23;8.80;;;2.30;99.90;;;;;;478490;248;27568;-70
2023/12/18 09:24:33;;;;;;;12.88;8.98;;;2.30;99.90;;;;;;478448;248;28177;-71
2023/12/18 09:26:34;;;;;;;11.10;8.25;;;2.30;99.90;;;;;;478530;248;27961;-69
2023/12/18 09:28:35;;;;;;;13.60;9.40;;;2.30;99.90;;;;;;478518;248;28010;-70
2023/12/18 09:30:38;;;;;;;12.35;8.55;;;2.30;99.90;;;;;;478521;248;27501;-70
2023/12/18 09:32:38;;;;;;;10.73;8.75;;;2.40;99.90;;;;;;478396;248;27508;-70
2023/12/18 09:34:39;;;;;;;12.05;8.23;;;2.40;99.90;;;;;;478520;248;27581;-70
2023/12/18 09:36:41;;;;;;;14.38;8.32;;;2.40;99.90;;;;;;478497;248;27535;-70
2023/12/18 09:38:42;;;;;;;10.25;7.70;;;2.40;99.90;;;;;;478509;248;27503;-70
2023/12/18 09:40:44;;;;;;;11.05;8.73;;;2.40;99.90;;;;;;478491;248;27682;-70
2023/12/18 09:42:44;;;;;;;11.00;8.68;;;2.40;99.90;;;;;;478412;248;27503;-70
2023/12/18 09:44:46;;;;;;;10.60;8.30;;;2.50;99.90;;;;;;478489;248;27565;-70
2023/12/18 09:46:47;;;;;;;13.27;8.73;;;2.50;99.90;;;;;;478502;248;27494;-70
2023/12/18 09:48:48;;;;;;;13.35;8.25;;;2.60;99.90;;;;;;478463;248;27565;-69
2023/12/18 09:50:49;;;;;;;10.80;8.48;;;2.70;99.90;;;;;;478525;248;28091;-71
2023/12/18 09:52:51;;;;;;;11.50;8.30;;;2.60;99.90;;;;;;478460;248;27963;-69
2023/12/18 09:54:52;;;;;;;15.38;9.43;;;2.70;99.90;;;;;;478507;243;28046;-70
2023/12/18 09:56:53;;;;;;;10.75;8.13;;;2.80;99.90;;;;;;478503;248;27530;-70
2023/12/18 09:58:55;;;;;;;10.95;9.02;;;2.80;99.90;;;;;;478516;248;27500;-70
2023/12/18 10:00:56;;;;;;;11.70;8.40;;;2.80;99.90;;;;;;478520;248;27609;-71
2023/12/18 10:02:57;;;;;;;11.95;8.90;;;2.90;99.90;;;;;;478438;248;27496;-69
2023/12/18 10:04:58;;;;;;;11.98;8.73;;;3.00;99.90;;;;;;478508;248;27638;-69
2023/12/18 10:06:59;;;;;;;11.18;8.35;;;3.00;99.90;;;;;;478535;248;27528;-71
2023/12/18 10:09:03;;;;;;;10.80;7.93;;;3.10;99.90;;;;;;478534;248;27554;-69
2023/12/18 10:11:03;;;;;;;10.68;8.45;;;3.10;99.90;;;;;;478393;243;28027;-70
2023/12/18 10:13:06;;;;;;;10.80;8.93;;;3.10;99.90;;;;;;478421;248;28095;-69
2023/12/18 10:15:06;;;;;;;11.00;8.90;;;3.10;99.90;;;;;;478235;248;29113;-70
2023/12/18 10:17:06;;;;;;;11.50;8.93;;;3.20;99.90;;;;;;478447;248;27550;-70
2023/12/18 10:19:07;;;;;;;13.30;8.35;;;3.20;99.90;;;;;;478518;248;27596;-69
2023/12/18 10:21:08;;;;;;;12.90;8.80;;;3.20;99.90;;;;;;478482;248;27526;-70
2023/12/18 10:23:09;;;;;;;13.32;8.73;;;3.30;99.90;;;;;;478439;248;27502;-69
2023/12/18 10:25:12;;;;;;;12.40;9.40;;;3.30;99.90;;;;;;478411;248;27543;-69
2023/12/18 10:27:12;;;;;;;12.05;8.20;;;3.40;99.90;;;;;;478447;248;27606;-71